Miri Airport Miri MY
ICAO: WBGR
IATA:
Category: Medium
Scheduled Services:

Elevation: 59 ft
TransAlt. 11000 ft.

Airport Communications:
APP:122.9
ATIS:127
GND:121.9
TWR:123.3

WBGR Zoom In..

Runways:

(A) RW 02 length 9006 ft width 197 ft
ILS 110.10 / hdg 24

(B) RW 20 length 9006 ft width 197 ft
---- / hdg 204

Location; WBGR
Day. 05 / Time. 15.00 Zulu
* QNH: 1009
* Temperature: 26° c. 78.8°f.
* Wind from: VRB° Speed 03 kn.
Dewpoint: 25° c.
Visibility: 10 km or more.
Clouds: Scattered 1600 ft.

WBGR 051500Z VRB03KT 9999 SCT016 26/25 Q1009

Going to: --> -->


Wind From VRB°
Speed 03 kn.

 
 
jpsmedia worldairports.se 2020   terms of use